Time;durP1;ratioP1;P1;durP2;ratioP2;P2;SDS_P1;SDS_P2;PMS_P1;PMS_P2;Temp;Humidity;BMP_temperature;BMP_pressure;BME280_temperature;BME280_humidity;BME280_pressure;Samples;Min_cycle;Max_cycle;Signal;HPM_P1;HPM_P2
2023/04/28 00:00:48;;;;;;;10.15;6.65;;;10.70;99.90;;;;;;5122267;27;20135;-57
2023/04/28 00:03:14;;;;;;;14.48;7.88;;;10.60;99.90;;;;;;5115353;27;20044;-57
2023/04/28 00:05:40;;;;;;;11.70;7.00;;;10.50;99.90;;;;;;5109475;27;20042;-57
2023/04/28 00:08:06;;;;;;;12.02;8.20;;;10.40;99.90;;;;;;5112156;27;20046;-57
2023/04/28 00:10:32;;;;;;;11.48;7.03;;;10.50;99.90;;;;;;5109818;27;20447;-57
2023/04/28 00:12:58;;;;;;;11.68;7.95;;;10.50;99.90;;;;;;5110805;27;20035;-57
2023/04/28 00:15:23;;;;;;;10.57;8.43;;;10.50;99.90;;;;;;5136932;27;20027;-57
2023/04/28 00:17:49;;;;;;;12.90;7.75;;;10.50;99.90;;;;;;5111837;27;20035;-57
2023/04/28 00:20:15;;;;;;;12.05;7.82;;;10.60;99.90;;;;;;5117635;27;20123;-58
2023/04/28 00:22:40;;;;;;;12.40;7.75;;;10.50;99.90;;;;;;5101740;27;20513;-57
2023/04/28 00:25:07;;;;;;;13.15;8.23;;;10.60;99.90;;;;;;5114870;27;20050;-57
2023/04/28 00:27:34;;;;;;;14.18;7.72;;;10.60;99.90;;;;;;5120357;27;20023;-57
2023/04/28 00:30:00;;;;;;;12.10;8.02;;;10.60;99.90;;;;;;5109669;27;20169;-58
2023/04/28 00:32:25;;;;;;;11.00;7.68;;;10.40;99.90;;;;;;5113072;27;20129;-57
2023/04/28 00:34:52;;;;;;;11.82;8.85;;;10.50;99.90;;;;;;5109378;27;20036;-57
2023/04/28 00:37:18;;;;;;;12.02;8.65;;;10.40;99.90;;;;;;5116546;27;20050;-57
2023/04/28 00:39:46;;;;;;;13.00;8.25;;;10.50;99.90;;;;;;5105816;27;20055;-58
2023/04/28 00:42:13;;;;;;;11.65;8.02;;;10.40;99.90;;;;;;5108989;27;20028;-57
2023/04/28 00:44:39;;;;;;;15.68;9.07;;;10.30;99.90;;;;;;5106742;27;20034;-57
2023/04/28 00:47:05;;;;;;;12.95;8.52;;;10.30;99.90;;;;;;5115428;27;20142;-57
2023/04/28 00:49:32;;;;;;;14.52;8.35;;;10.30;99.90;;;;;;5104035;27;20031;-57
2023/04/28 00:52:03;;;;;;;13.32;8.77;;;10.40;99.90;;;;;;5074489;28;20456;-57
2023/04/28 00:54:29;;;;;;;12.32;8.68;;;10.30;99.90;;;;;;5113880;27;20770;-58
2023/04/28 00:56:55;;;;;;;14.20;8.63;;;10.30;99.90;;;;;;5099165;27;20123;-57
2023/04/28 00:59:21;;;;;;;11.70;8.15;;;10.20;99.90;;;;;;5097617;27;20050;-57
2023/04/28 01:01:47;;;;;;;13.00;8.57;;;10.10;99.90;;;;;;5118638;27;20032;-58
2023/04/28 01:04:14;;;;;;;13.15;9.10;;;10.00;99.90;;;;;;5112713;27;20031;-57
2023/04/28 01:06:41;;;;;;;15.20;9.30;;;10.00;99.90;;;;;;5110084;27;20039;-57
2023/04/28 01:09:06;;;;;;;13.48;8.85;;;10.00;99.90;;;;;;5116613;27;20403;-58
2023/04/28 01:11:32;;;;;;;15.02;9.60;;;9.90;99.90;;;;;;5112372;27;20031;-57
2023/04/28 01:13:58;;;;;;;14.05;10.05;;;9.90;99.90;;;;;;5106363;27;20466;-58
2023/04/28 01:16:25;;;;;;;12.93;9.35;;;9.90;99.90;;;;;;5119999;27;20042;-58
2023/04/28 01:18:51;;;;;;;14.05;9.73;;;9.80;99.90;;;;;;5108711;27;20093;-58
2023/04/28 01:21:26;;;;;;;14.40;9.48;;;9.80;99.90;;;;;;5109275;27;20127;-57
2023/04/28 01:23:52;;;;;;;14.50;10.18;;;9.70;99.90;;;;;;5124321;27;20781;-57
2023/04/28 01:26:18;;;;;;;15.15;10.77;;;9.80;99.90;;;;;;5107458;27;20055;-57
2023/04/28 01:28:43;;;;;;;14.07;9.65;;;9.80;99.90;;;;;;5115560;27;20134;-58
2023/04/28 01:31:09;;;;;;;15.18;10.15;;;9.80;99.90;;;;;;5106200;27;20031;-57
2023/04/28 01:33:35;;;;;;;13.75;10.57;;;9.80;99.90;;;;;;5123063;27;20115;-57
2023/04/28 01:36:01;;;;;;;17.50;10.75;;;9.90;99.90;;;;;;5116027;27;20039;-57
2023/04/28 01:38:26;;;;;;;16.35;10.75;;;9.90;99.90;;;;;;5119568;27;20039;-57
2023/04/28 01:40:54;;;;;;;16.75;11.20;;;9.80;99.90;;;;;;5111096;27;20032;-57
2023/04/28 01:43:19;;;;;;;16.88;11.02;;;9.80;99.90;;;;;;5095729;28;20126;-57
2023/04/28 01:45:45;;;;;;;15.85;10.90;;;9.80;99.90;;;;;;5097101;28;20106;-58
2023/04/28 01:48:10;;;;;;;15.13;10.77;;;9.70;99.90;;;;;;5099799;27;20093;-58
2023/04/28 01:50:36;;;;;;;14.18;11.40;;;9.70;99.90;;;;;;5111885;27;20069;-58
2023/04/28 01:53:01;;;;;;;15.05;10.65;;;9.70;99.90;;;;;;5110836;27;20027;-57
2023/04/28 01:55:27;;;;;;;16.83;11.93;;;9.70;99.90;;;;;;5119064;27;20479;-58
2023/04/28 01:57:53;;;;;;;16.75;11.43;;;9.80;99.90;;;;;;5105377;27;20126;-57
2023/04/28 02:00:18;;;;;;;14.32;11.40;;;9.80;99.90;;;;;;5107276;27;20686;-57
2023/04/28 02:02:44;;;;;;;15.40;10.88;;;9.80;99.90;;;;;;5111017;27;20038;-57
2023/04/28 02:05:10;;;;;;;18.33;11.80;;;9.80;99.90;;;;;;5104046;27;20107;-58
2023/04/28 02:07:36;;;;;;;14.45;10.88;;;9.90;99.90;;;;;;5119932;27;20054;-57
2023/04/28 02:10:02;;;;;;;17.05;11.95;;;9.80;99.90;;;;;;5110664;27;20024;-57
2023/04/28 02:12:27;;;;;;;17.55;11.70;;;9.80;99.90;;;;;;5104279;28;20150;-57
2023/04/28 02:14:53;;;;;;;16.23;12.05;;;9.90;99.90;;;;;;5113882;27;20032;-57
2023/04/28 02:17:18;;;;;;;16.55;11.68;;;9.80;99.90;;;;;;5103019;28;20036;-57
2023/04/28 02:19:44;;;;;;;15.60;10.85;;;9.80;99.90;;;;;;5112237;27;20666;-57
2023/04/28 02:22:10;;;;;;;16.10;11.38;;;9.80;99.90;;;;;;5118574;27;20035;-58
2023/04/28 02:24:36;;;;;;;15.60;11.98;;;9.90;99.90;;;;;;5111725;27;20042;-58
2023/04/28 02:27:04;;;;;;;16.02;11.35;;;9.90;99.90;;;;;;5124461;27;20035;-56
2023/04/28 02:29:30;;;;;;;17.17;11.48;;;10.00;99.90;;;;;;5112328;27;20579;-57
2023/04/28 02:31:56;;;;;;;19.00;11.43;;;9.90;99.90;;;;;;5119051;27;20397;-58
2023/04/28 02:34:21;;;;;;;14.05;10.80;;;10.00;99.90;;;;;;5113650;27;20042;-57
2023/04/28 02:36:47;;;;;;;16.52;11.63;;;10.20;99.90;;;;;;5118992;27;20397;-58
2023/04/28 02:39:13;;;;;;;16.00;11.50;;;10.10;99.90;;;;;;5110971;27;20408;-57
2023/04/28 02:41:38;;;;;;;16.63;11.68;;;10.00;99.90;;;;;;5118461;27;20027;-57
2023/04/28 02:44:04;;;;;;;17.27;11.40;;;9.90;99.90;;;;;;5115373;27;20024;-57
2023/04/28 02:46:30;;;;;;;17.35;11.73;;;9.90;99.90;;;;;;5109859;27;20085;-58
2023/04/28 02:48:55;;;;;;;17.48;11.70;;;10.00;99.90;;;;;;5113565;27;20150;-58
2023/04/28 02:51:21;;;;;;;17.00;12.20;;;10.00;99.90;;;;;;5110865;27;20040;-57
2023/04/28 02:53:46;;;;;;;16.95;12.05;;;10.10;99.90;;;;;;5121712;27;20136;-58
2023/04/28 02:56:12;;;;;;;16.98;12.52;;;10.10;99.90;;;;;;5118786;27;20130;-58
2023/04/28 02:58:37;;;;;;;16.75;12.23;;;10.10;99.90;;;;;;5123197;27;20148;-58
2023/04/28 03:01:03;;;;;;;17.58;11.48;;;10.40;99.90;;;;;;5122564;27;20449;-58
2023/04/28 03:03:28;;;;;;;17.77;11.93;;;10.40;99.90;;;;;;5116571;27;20023;-58
2023/04/28 03:05:55;;;;;;;16.75;11.40;;;10.30;99.90;;;;;;5113595;27;20455;-58
2023/04/28 03:08:21;;;;;;;17.55;11.75;;;10.40;99.90;;;;;;5108700;27;20050;-58
2023/04/28 03:10:47;;;;;;;18.65;10.68;;;10.40;99.90;;;;;;5108754;27;20032;-57
2023/04/28 03:13:12;;;;;;;17.05;10.70;;;10.50;99.90;;;;;;5121110;27;20118;-58
2023/04/28 03:15:38;;;;;;;13.23;10.82;;;10.50;99.90;;;;;;5112438;27;20034;-58
2023/04/28 03:18:03;;;;;;;14.95;10.10;;;10.60;99.90;;;;;;5108680;27;20035;-57
2023/04/28 03:20:29;;;;;;;16.17;10.48;;;10.60;99.90;;;;;;5108114;27;20034;-58
2023/04/28 03:22:55;;;;;;;15.05;10.85;;;10.60;99.90;;;;;;5118449;27;20031;-58
2023/04/28 03:25:20;;;;;;;14.32;10.55;;;10.60;99.90;;;;;;5114530;27;20122;-58
2023/04/28 03:27:46;;;;;;;16.60;10.95;;;10.60;99.90;;;;;;5113001;27;20371;-58
2023/04/28 03:30:12;;;;;;;15.38;10.13;;;10.70;99.90;;;;;;5109520;27;20051;-58
2023/04/28 03:32:38;;;;;;;13.65;10.25;;;10.70;99.90;;;;;;5119404;27;20501;-57
2023/04/28 03:35:04;;;;;;;16.27;10.30;;;10.70;99.90;;;;;;5115309;27;20067;-58
2023/04/28 03:37:29;;;;;;;15.88;10.27;;;10.70;99.90;;;;;;5120742;27;20027;-58
2023/04/28 03:39:55;;;;;;;12.43;10.10;;;10.90;99.90;;;;;;5112738;27;20035;-58
2023/04/28 03:42:20;;;;;;;16.90;10.43;;;10.80;99.90;;;;;;5108791;27;20783;-58
2023/04/28 03:44:46;;;;;;;15.73;10.18;;;10.90;99.90;;;;;;5111056;27;20034;-58
2023/04/28 03:47:12;;;;;;;12.60;10.02;;;10.90;99.90;;;;;;5101742;28;20035;-57
2023/04/28 03:49:37;;;;;;;13.13;10.18;;;10.90;99.90;;;;;;5118874;27;20034;-57
2023/04/28 03:52:03;;;;;;;16.23;10.23;;;10.90;99.90;;;;;;5123666;27;20707;-57
2023/04/28 03:54:28;;;;;;;15.75;10.35;;;11.00;99.90;;;;;;5118195;27;20067;-57
2023/04/28 03:56:54;;;;;;;14.77;10.93;;;11.00;99.90;;;;;;5118149;27;20076;-57
2023/04/28 03:59:20;;;;;;;17.13;10.93;;;10.90;99.90;;;;;;5103450;27;20107;-57
2023/04/28 04:01:45;;;;;;;15.15;10.55;;;10.80;99.90;;;;;;5120129;27;20067;-57
2023/04/28 04:04:11;;;;;;;17.58;11.35;;;10.90;99.90;;;;;;5107835;27;20479;-57
2023/04/28 04:06:36;;;;;;;14.40;11.00;;;10.80;99.90;;;;;;5111599;27;20431;-57
2023/04/28 04:09:02;;;;;;;15.32;11.10;;;10.80;99.90;;;;;;5110110;27;20127;-57
2023/04/28 04:11:27;;;;;;;16.08;11.80;;;10.80;99.90;;;;;;5108519;27;20105;-57
2023/04/28 04:13:53;;;;;;;16.02;11.98;;;10.80;99.90;;;;;;5115923;27;20106;-57
2023/04/28 04:16:18;;;;;;;17.88;11.35;;;11.00;99.90;;;;;;5108782;27;20071;-57
2023/04/28 04:18:44;;;;;;;18.67;11.15;;;11.00;99.90;;;;;;5117464;27;20045;-57
2023/04/28 04:21:09;;;;;;;17.70;11.75;;;11.00;99.90;;;;;;5095651;27;20054;-58
2023/04/28 04:23:35;;;;;;;20.23;11.48;;;11.10;99.90;;;;;;5109713;27;20055;-58
2023/04/28 04:26:01;;;;;;;15.52;11.18;;;11.00;99.90;;;;;;5109996;27;20040;-57
2023/04/28 04:28:26;;;;;;;16.25;11.48;;;11.10;99.90;;;;;;5115191;27;20157;-57
2023/04/28 04:30:52;;;;;;;17.48;11.73;;;11.00;99.90;;;;;;5105491;27;20103;-58
2023/04/28 04:33:17;;;;;;;16.13;11.25;;;11.00;99.90;;;;;;5119309;27;20032;-57
2023/04/28 04:35:43;;;;;;;17.20;12.13;;;11.00;99.90;;;;;;5111946;27;20046;-58
2023/04/28 04:38:09;;;;;;;18.35;10.82;;;11.10;99.90;;;;;;5103882;27;20027;-58
2023/04/28 04:40:35;;;;;;;17.55;10.95;;;11.20;99.90;;;;;;5106569;27;20057;-58
2023/04/28 04:43:01;;;;;;;16.48;11.27;;;11.20;99.90;;;;;;5102157;27;20862;-57
2023/04/28 04:45:26;;;;;;;22.02;12.02;;;11.10;99.90;;;;;;5111559;27;20031;-58
2023/04/28 04:47:52;;;;;;;16.65;10.85;;;11.10;99.90;;;;;;5110380;27;20058;-58
2023/04/28 04:50:18;;;;;;;18.58;12.07;;;11.10;99.90;;;;;;5089709;28;20517;-58
2023/04/28 04:52:43;;;;;;;19.00;12.18;;;11.10;99.90;;;;;;5112630;27;20080;-58
2023/04/28 04:55:10;;;;;;;16.70;11.73;;;11.20;99.90;;;;;;5113253;27;20031;-58
2023/04/28 04:57:36;;;;;;;18.20;11.32;;;11.30;99.90;;;;;;5121691;27;20039;-57
2023/04/28 05:00:03;;;;;;;19.42;12.02;;;11.30;99.90;;;;;;5116499;27;20597;-56
2023/04/28 05:02:29;;;;;;;15.63;10.93;;;11.30;99.90;;;;;;5108673;27;20035;-58
2023/04/28 05:04:54;;;;;;;13.77;10.23;;;11.30;99.90;;;;;;5092382;27;20111;-57
2023/04/28 05:07:20;;;;;;;16.33;9.93;;;11.30;99.90;;;;;;5105338;27;20728;-58
2023/04/28 05:09:45;;;;;;;15.90;9.63;;;11.30;99.90;;;;;;5109641;27;20076;-58
2023/04/28 05:12:11;;;;;;;14.20;10.15;;;11.40;99.90;;;;;;5113835;27;20500;-58
2023/04/28 05:14:37;;;;;;;16.92;9.90;;;11.40;99.90;;;;;;5124784;27;20107;-58
2023/04/28 05:17:02;;;;;;;16.45;10.50;;;11.30;99.90;;;;;;5105204;27;20062;-57
2023/04/28 05:19:28;;;;;;;13.65;10.15;;;11.20;99.90;;;;;;5105239;27;20032;-58
2023/04/28 05:21:54;;;;;;;16.52;10.15;;;11.30;99.90;;;;;;5108380;27;20032;-57
2023/04/28 05:24:23;;;;;;;15.63;10.45;;;11.20;99.90;;;;;;5113767;27;20039;-57
2023/04/28 05:26:52;;;;;;;16.35;10.73;;;11.20;99.90;;;;;;5100400;28;20027;-57
2023/04/28 05:29:19;;;;;;;13.90;10.02;;;11.30;99.90;;;;;;5099249;27;20407;-57
2023/04/28 05:31:44;;;;;;;20.33;11.02;;;11.30;99.90;;;;;;5104934;27;20506;-57
2023/04/28 05:34:10;;;;;;;17.40;10.75;;;11.30;99.90;;;;;;5104845;27;20051;-58
2023/04/28 05:36:36;;;;;;;21.42;11.30;;;11.40;99.90;;;;;;5090430;27;20603;-58
2023/04/28 05:39:02;;;;;;;15.20;10.68;;;11.30;99.90;;;;;;5101171;27;20040;-57
2023/04/28 05:41:27;;;;;;;17.25;11.18;;;11.30;99.90;;;;;;5106771;27;20332;-57
2023/04/28 05:43:53;;;;;;;16.10;11.32;;;11.40;99.90;;;;;;5098205;27;20040;-57
2023/04/28 05:46:18;;;;;;;17.27;10.77;;;11.40;99.90;;;;;;5103292;27;20077;-57
2023/04/28 05:48:45;;;;;;;15.50;11.20;;;11.30;99.90;;;;;;5103681;27;20035;-57
2023/04/28 05:51:10;;;;;;;17.58;11.20;;;11.40;99.90;;;;;;5100922;28;20132;-57
2023/04/28 05:53:36;;;;;;;14.48;10.57;;;11.30;99.90;;;;;;5097626;27;20161;-57
2023/04/28 05:56:02;;;;;;;13.95;10.45;;;11.30;99.90;;;;;;5107425;27;20094;-56
2023/04/28 05:58:28;;;;;;;18.63;10.73;;;11.40;99.90;;;;;;5113193;27;20044;-57
2023/04/28 06:00:54;;;;;;;16.77;10.40;;;11.40;99.90;;;;;;5114533;27;20125;-58
2023/04/28 06:03:19;;;;;;;15.68;11.32;;;11.40;99.90;;;;;;5101983;27;20130;-58
2023/04/28 06:05:45;;;;;;;15.07;11.25;;;11.50;99.90;;;;;;5108044;27;20034;-58
2023/04/28 06:08:11;;;;;;;20.83;12.65;;;11.50;99.90;;;;;;5109765;27;20493;-58
2023/04/28 06:10:36;;;;;;;15.55;10.30;;;11.60;99.90;;;;;;5118127;27;20074;-57
2023/04/28 06:13:03;;;;;;;13.77;10.70;;;11.60;99.90;;;;;;5102263;27;20024;-58
2023/04/28 06:15:29;;;;;;;15.65;10.40;;;11.60;99.90;;;;;;5092264;28;20036;-58
2023/04/28 06:17:55;;;;;;;16.08;10.50;;;11.60;99.90;;;;;;5110525;28;20494;-57
2023/04/28 06:20:20;;;;;;;15.23;10.10;;;11.60;99.90;;;;;;5091204;28;20040;-58
2023/04/28 06:22:46;;;;;;;14.02;10.45;;;11.70;99.90;;;;;;5116335;27;20027;-58
2023/04/28 06:25:12;;;;;;;24.73;11.70;;;11.70;99.90;;;;;;5098726;27;20119;-57
2023/04/28 06:27:37;;;;;;;17.55;10.27;;;11.70;99.90;;;;;;5112262;28;20059;-57
2023/04/28 06:30:03;;;;;;;12.75;9.63;;;11.70;99.90;;;;;;5102242;28;20040;-57
2023/04/28 06:32:29;;;;;;;15.77;10.15;;;11.80;99.90;;;;;;5107209;28;20042;-58
2023/04/28 06:34:54;;;;;;;16.45;9.85;;;11.80;99.90;;;;;;5114975;27;20051;-58
2023/04/28 06:37:20;;;;;;;15.85;9.95;;;11.90;99.90;;;;;;5099091;28;20543;-58
2023/04/28 06:39:46;;;;;;;14.80;8.80;;;12.70;99.90;;;;;;5108797;28;20040;-58
2023/04/28 06:42:12;;;;;;;12.52;9.20;;;12.10;99.90;;;;;;5102473;28;20063;-58
2023/04/28 06:44:37;;;;;;;14.63;9.32;;;12.10;99.90;;;;;;5098923;28;20738;-57
2023/04/28 06:47:03;;;;;;;16.25;9.73;;;12.00;99.90;;;;;;5091665;28;20129;-58
2023/04/28 06:49:28;;;;;;;14.15;9.45;;;12.10;99.90;;;;;;5114241;28;20076;-57
2023/04/28 06:51:54;;;;;;;14.90;9.35;;;12.20;99.90;;;;;;5100789;28;20035;-58
2023/04/28 06:54:20;;;;;;;15.15;9.70;;;12.20;99.90;;;;;;5099307;27;20058;-58
2023/04/28 06:56:45;;;;;;;12.77;8.60;;;12.40;99.90;;;;;;5099636;28;20035;-58
2023/04/28 06:59:11;;;;;;;14.90;9.23;;;12.50;99.90;;;;;;5100603;28;20044;-57
2023/04/28 07:01:37;;;;;;;14.38;9.50;;;12.60;99.90;;;;;;5106870;28;20504;-58
2023/04/28 07:04:02;;;;;;;12.88;8.55;;;12.70;99.90;;;;;;5097120;28;20062;-58
2023/04/28 07:06:28;;;;;;;11.32;8.77;;;12.70;99.90;;;;;;5105364;27;20068;-58
2023/04/28 07:08:54;;;;;;;15.20;8.40;;;12.80;99.90;;;;;;5115238;27;20043;-58
2023/04/28 07:11:20;;;;;;;13.48;8.75;;;12.90;99.90;;;;;;5112943;27;20036;-58
2023/04/28 07:13:48;;;;;;;16.30;9.60;;;12.90;99.90;;;;;;5120913;27;20343;-57
2023/04/28 07:16:14;;;;;;;15.90;9.05;;;12.70;99.90;;;;;;5118319;27;20040;-58
2023/04/28 07:18:40;;;;;;;10.88;9.10;;;12.70;99.90;;;;;;5111735;27;20041;-58
2023/04/28 07:21:05;;;;;;;12.45;9.07;;;12.70;99.90;;;;;;5110000;27;20031;-57
2023/04/28 07:23:31;;;;;;;13.05;9.60;;;12.80;99.90;;;;;;5110432;27;21003;-58
2023/04/28 07:25:57;;;;;;;12.50;9.27;;;12.90;99.90;;;;;;5103758;27;20694;-58
2023/04/28 07:28:23;;;;;;;14.38;9.80;;;12.90;99.90;;;;;;5111520;27;20344;-58
2023/04/28 07:30:48;;;;;;;14.82;10.00;;;13.00;99.90;;;;;;5110684;27;20027;-57
2023/04/28 07:33:14;;;;;;;13.82;10.20;;;13.10;99.90;;;;;;5110012;27;20457;-58
2023/04/28 07:35:39;;;;;;;13.48;9.20;;;13.10;99.90;;;;;;5109498;27;20418;-58
2023/04/28 07:38:05;;;;;;;15.63;9.50;;;13.10;99.90;;;;;;5117483;27;20042;-57
2023/04/28 07:40:31;;;;;;;12.45;9.38;;;13.00;99.90;;;;;;5107937;27;20028;-57
2023/04/28 07:42:56;;;;;;;14.25;9.55;;;13.00;99.90;;;;;;5105735;27;20040;-57
2023/04/28 07:45:22;;;;;;;14.38;9.32;;;13.10;99.90;;;;;;5109327;27;20175;-58
2023/04/28 07:47:47;;;;;;;12.82;9.05;;;13.30;99.90;;;;;;5115324;27;20084;-57
2023/04/28 07:50:13;;;;;;;12.98;8.98;;;12.90;99.90;;;;;;5113695;27;20602;-58
2023/04/28 07:52:39;;;;;;;13.95;9.13;;;13.70;99.90;;;;;;5116867;27;20051;-58
2023/04/28 07:55:05;;;;;;;15.75;9.27;;;13.60;99.90;;;;;;5127111;27;20068;-58
2023/04/28 07:57:30;;;;;;;13.52;8.82;;;13.60;99.90;;;;;;5117338;27;20060;-58
2023/04/28 07:59:56;;;;;;;13.07;8.70;;;13.60;99.90;;;;;;5113437;27;20044;-58
2023/04/28 08:02:22;;;;;;;10.77;8.25;;;13.60;99.90;;;;;;5106066;27;20147;-58
2023/04/28 08:04:48;;;;;;;16.00;8.27;;;13.50;99.90;;;;;;5107216;27;20118;-57
2023/04/28 08:07:13;;;;;;;13.45;8.55;;;13.50;99.90;;;;;;5125875;27;20565;-57
2023/04/28 08:09:41;;;;;;;12.30;8.65;;;13.50;99.90;;;;;;5116278;27;20036;-57
2023/04/28 08:12:07;;;;;;;13.75;9.13;;;13.60;99.90;;;;;;5113641;27;20618;-57
2023/04/28 08:14:33;;;;;;;15.30;8.63;;;13.70;99.90;;;;;;5124035;27;20030;-58
2023/04/28 08:16:58;;;;;;;12.95;8.75;;;13.60;99.90;;;;;;5107827;27;20537;-57
2023/04/28 08:19:24;;;;;;;13.38;8.25;;;13.40;99.90;;;;;;5115184;27;20520;-57
2023/04/28 08:21:49;;;;;;;14.35;8.63;;;13.40;99.90;;;;;;5118158;27;20035;-57
2023/04/28 08:24:15;;;;;;;16.85;9.90;;;13.60;99.90;;;;;;5121951;27;20134;-58
2023/04/28 08:26:41;;;;;;;13.00;9.35;;;13.70;99.90;;;;;;5110390;27;20028;-57
2023/04/28 08:29:06;;;;;;;13.07;9.55;;;13.70;99.90;;;;;;5113257;27;20051;-58
2023/04/28 08:31:32;;;;;;;15.02;10.48;;;13.80;99.90;;;;;;5099446;27;20032;-57
2023/04/28 08:33:57;;;;;;;12.32;8.80;;;14.00;99.90;;;;;;5114435;27;20055;-58
2023/04/28 08:36:25;;;;;;;12.20;8.55;;;14.00;99.90;;;;;;5117650;27;20031;-57
2023/04/28 08:38:51;;;;;;;10.90;8.90;;;13.90;99.90;;;;;;5109177;27;20069;-58
2023/04/28 08:41:18;;;;;;;15.18;9.15;;;14.00;99.90;;;;;;5098443;27;20052;-58
2023/04/28 08:43:44;;;;;;;13.35;9.55;;;14.30;99.90;;;;;;5114896;27;20023;-58
2023/04/28 08:46:10;;;;;;;14.68;9.95;;;14.30;99.90;;;;;;5100963;27;20111;-58
2023/04/28 08:48:42;;;;;;;12.35;8.63;;;14.30;99.90;;;;;;5120817;27;20134;-58
2023/04/28 08:51:08;;;;;;;12.10;9.52;;;14.30;99.90;;;;;;5102668;27;20450;-58
2023/04/28 08:53:38;;;;;;;12.00;9.65;;;14.10;99.90;;;;;;5122131;27;20032;-58
2023/04/28 08:56:09;;;;;;;15.30;9.88;;;14.10;99.90;;;;;;5102278;27;20035;-58
2023/04/28 08:58:38;;;;;;;14.82;9.15;;;14.00;99.90;;;;;;5112096;27;20202;-57
2023/04/28 09:01:03;;;;;;;13.65;9.32;;;14.20;99.90;;;;;;5108093;27;20460;-58
2023/04/28 09:03:32;;;;;;;16.40;10.32;;;14.40;99.90;;;;;;5110536;27;20043;-58
2023/04/28 09:05:58;;;;;;;31.80;26.05;;;14.40;99.90;;;;;;5114094;27;20036;-58
2023/04/28 09:08:23;;;;;;;31.40;21.77;;;14.30;99.90;;;;;;5102292;27;20082;-56
2023/04/28 09:11:06;;;;;;;14.43;9.57;;;14.50;99.90;;;;;;5116257;27;20450;-57
2023/04/28 09:13:32;;;;;;;17.37;10.47;;;14.30;99.90;;;;;;5120328;27;20491;-58
2023/04/28 09:16:02;;;;;;;13.55;10.30;;;14.40;99.90;;;;;;5097622;27;20285;-57
2023/04/28 09:18:31;;;;;;;14.07;10.02;;;14.50;99.90;;;;;;5111420;27;20040;-57
2023/04/28 09:21:07;;;;;;;16.80;9.73;;;14.70;99.90;;;;;;5109096;27;20131;-57
2023/04/28 09:23:45;;;;;;;14.48;9.48;;;14.70;99.90;;;;;;5095833;28;20040;-57
2023/04/28 09:26:10;;;;;;;16.20;9.50;;;14.60;99.90;;;;;;5099028;27;20550;-57
2023/04/28 09:28:36;;;;;;;13.30;9.80;;;14.70;99.90;;;;;;5119703;27;20134;-57
2023/04/28 09:31:02;;;;;;;12.18;9.48;;;14.70;99.90;;;;;;5104741;27;20773;-57
2023/04/28 09:33:28;;;;;;;11.25;8.82;;;14.50;99.90;;;;;;5109084;27;20095;-56
2023/04/28 09:35:54;;;;;;;22.45;16.35;;;14.60;99.90;;;;;;5103045;27;20024;-57
2023/04/28 09:38:21;;;;;;;12.45;10.10;;;14.70;99.90;;;;;;5110248;27;20095;-57
2023/04/28 09:41:00;;;;;;;12.02;9.88;;;14.60;99.90;;;;;;5114209;27;20046;-57
2023/04/28 09:43:31;;;;;;;13.90;10.35;;;14.60;99.90;;;;;;5113650;27;20079;-56
2023/04/28 09:46:00;;;;;;;42.88;27.73;;;14.70;99.90;;;;;;5101751;27;20118;-57
2023/04/28 09:48:30;;;;;;;15.90;12.27;;;14.80;99.90;;;;;;5109837;27;20554;-57
2023/04/28 09:50:58;;;;;;;14.80;11.63;;;14.90;99.90;;;;;;5119513;27;20039;-57
2023/04/28 09:53:24;;;;;;;16.52;10.27;;;15.00;99.90;;;;;;5113633;27;20027;-57
2023/04/28 09:55:52;;;;;;;16.23;10.43;;;14.90;99.90;;;;;;5123057;27;20122;-57
2023/04/28 09:58:22;;;;;;;14.57;10.48;;;14.90;99.90;;;;;;5100073;27;20127;-57
2023/04/28 10:00:55;;;;;;;15.38;10.32;;;15.00;99.90;;;;;;5108202;27;20339;-57
2023/04/28 10:03:26;;;;;;;16.73;10.57;;;14.90;99.90;;;;;;5114350;27;20091;-57
2023/04/28 10:05:52;;;;;;;16.50;11.38;;;14.90;99.90;;;;;;5114942;27;20055;-57
2023/04/28 10:08:22;;;;;;;15.68;11.70;;;14.90;99.90;;;;;;5116259;27;20035;-57
2023/04/28 10:10:49;;;;;;;18.55;11.50;;;15.00;99.90;;;;;;5112651;27;20066;-57
2023/04/28 10:13:18;;;;;;;18.23;12.70;;;14.70;99.90;;;;;;5109507;27;20063;-57
2023/04/28 10:15:45;;;;;;;23.77;17.77;;;14.60;99.90;;;;;;5110723;27;20027;-57
2023/04/28 10:18:15;;;;;;;16.10;13.43;;;14.60;99.90;;;;;;5103967;28;20342;-55
2023/04/28 10:20:47;;;;;;;18.00;14.18;;;14.60;99.90;;;;;;5102786;27;20038;-55
2023/04/28 10:23:34;;;;;;;17.40;13.75;;;14.90;99.90;;;;;;5121233;27;20058;-55
2023/04/28 10:26:01;;;;;;;20.25;15.05;;;14.90;99.90;;;;;;5099594;28;20046;-55
2023/04/28 10:28:27;;;;;;;18.38;14.15;;;14.90;99.90;;;;;;5103277;28;20036;-55
2023/04/28 10:31:14;;;;;;;22.50;14.98;;;14.90;99.90;;;;;;5087259;28;20035;-55
2023/04/28 10:33:40;;;;;;;20.20;14.38;;;14.80;99.90;;;;;;5092546;28;20024;-55
2023/04/28 10:36:06;;;;;;;17.20;14.63;;;14.70;99.90;;;;;;5115635;28;20410;-55
2023/04/28 10:38:33;;;;;;;21.25;16.08;;;;;;;;;;5116798;28;20051;-56
2023/04/28 10:41:03;;;;;;;21.67;16.60;;;15.10;99.90;;;;;;5096181;28;20456;-55
2023/04/28 10:43:31;;;;;;;18.55;14.30;;;15.00;99.90;;;;;;5111945;27;20337;-55
2023/04/28 10:46:00;;;;;;;17.10;13.85;;;14.90;99.90;;;;;;5113561;27;20934;-55
2023/04/28 10:48:25;;;;;;;20.48;16.08;;;14.80;99.90;;;;;;5109557;27;20027;-55
2023/04/28 10:51:03;;;;;;;24.42;16.60;;;14.70;99.90;;;;;;5102572;27;20035;-56
2023/04/28 10:53:44;;;;;;;21.55;16.38;;;14.90;99.90;;;;;;5098261;27;20488;-55
2023/04/28 10:56:11;;;;;;;17.10;14.45;;;14.90;99.90;;;;;;5113512;27;20513;-55
2023/04/28 10:58:42;;;;;;;21.77;16.33;;;14.90;99.90;;;;;;5104541;27;20520;-55
2023/04/28 11:01:26;;;;;;;20.77;16.17;;;15.00;99.90;;;;;;5107757;27;20474;-56
2023/04/28 11:04:06;;;;;;;;;;;15.10;99.90;;;;;;5112760;27;20390;-57
2023/04/28 11:06:43;;;;;;;18.70;14.93;;;15.10;99.90;;;;;;5113580;27;19912;-57
2023/04/28 11:09:11;;;;;;;19.17;16.00;;;15.20;99.90;;;;;;5112000;27;20051;-57
2023/04/28 11:11:38;;;;;;;18.30;16.10;;;15.40;99.90;;;;;;5112965;27;20065;-58
2023/04/28 11:14:17;;;;;;;20.25;16.23;;;15.50;99.90;;;;;;5121012;27;20042;-57
2023/04/28 11:16:53;;;;;;;18.95;16.80;;;15.50;99.90;;;;;;5105183;27;20063;-58
2023/04/28 11:19:24;;;;;;;20.02;15.32;;;15.50;99.90;;;;;;5112110;27;20046;-57
2023/04/28 11:21:51;;;;;;;17.73;15.55;;;15.50;99.90;;;;;;5121566;27;20043;-57
2023/04/28 11:24:17;;;;;;;20.50;17.38;;;15.50;99.90;;;;;;5108190;27;20104;-57
2023/04/28 11:26:43;;;;;;;17.80;16.00;;;15.60;99.90;;;;;;5110286;27;20038;-57
2023/04/28 11:29:10;;;;;;;19.25;16.35;;;15.70;99.90;;;;;;5102257;27;20043;-57
2023/04/28 11:31:37;;;;;;;20.38;16.50;;;15.60;99.90;;;;;;5118114;27;20120;-57
2023/04/28 11:34:10;;;;;;;18.23;15.85;;;15.50;99.90;;;;;;5114813;27;20134;-57
2023/04/28 11:36:38;;;;;;;17.73;15.80;;;15.50;99.90;;;;;;5117620;27;20047;-57
2023/04/28 11:39:08;;;;;;;16.10;14.48;;;15.60;99.90;;;;;;5111858;27;20143;-57
2023/04/28 11:41:39;;;;;;;16.73;14.15;;;15.50;99.90;;;;;;5111494;27;20439;-57
2023/04/28 11:44:16;;;;;;;15.50;13.85;;;15.40;99.90;;;;;;5111505;27;20468;-57
2023/04/28 11:46:49;;;;;;;17.48;14.95;;;15.50;99.90;;;;;;5111469;27;20057;-57
2023/04/28 11:49:15;;;;;;;19.85;16.58;;;15.70;99.90;;;;;;5111152;27;20471;-58
2023/04/28 11:51:42;;;;;;;18.05;15.23;;;15.80;99.90;;;;;;5108816;27;20503;-57
2023/04/28 11:54:10;;;;;;;16.92;14.82;;;15.90;99.90;;;;;;5107898;27;20368;-57
2023/04/28 11:56:40;;;;;;;16.50;14.77;;;16.00;99.90;;;;;;5103636;27;20112;-57
2023/04/28 11:59:11;;;;;;;16.33;14.05;;;16.00;99.90;;;;;;5105520;27;20043;-58
2023/04/28 12:01:48;;;;;;;15.85;14.18;;;16.00;99.90;;;;;;5105124;28;20523;-57
2023/04/28 12:04:36;;;;;;;14.25;12.55;;;16.00;99.90;;;;;;5109288;27;20024;-57
2023/04/28 12:07:12;;;;;;;14.32;12.93;;;16.00;99.90;;;;;;5108594;27;20031;-57
2023/04/28 12:09:43;;;;;;;13.07;11.77;;;16.00;99.90;;;;;;5103119;27;20044;-58
2023/04/28 12:12:13;;;;;;;14.98;13.10;;;16.00;99.90;;;;;;5102120;27;20266;-57
2023/04/28 12:15:05;;;;;;;12.27;10.98;;;16.10;99.90;;;;;;5116512;27;20035;-58
2023/04/28 12:17:40;;;;;;;13.43;11.95;;;16.40;99.90;;;;;;5106470;27;20047;-58
2023/04/28 12:20:10;;;;;;;12.48;11.18;;;16.50;99.90;;;;;;5094233;27;20050;-58
2023/04/28 12:22:47;;;;;;;13.05;11.65;;;16.70;99.90;;;;;;5104718;27;20043;-58
2023/04/28 12:25:16;;;;;;;16.05;12.27;;;16.70;99.90;;;;;;5104745;27;20528;-57
2023/04/28 12:28:04;;;;;;;12.07;10.73;;;17.00;99.90;;;;;;5108559;27;20058;-58
2023/04/28 12:30:32;;;;;;;11.43;10.15;;;16.90;99.90;;;;;;5107427;27;20438;-58
2023/04/28 12:32:58;;;;;;;11.93;10.68;;;16.90;99.90;;;;;;5108428;27;20040;-58